createdAt,value
2023-04-16T00:00:46.291Z,100269.97
2023-04-16T00:02:09.066Z,100274.84
2023-04-16T00:03:31.263Z,100274.81
2023-04-16T00:04:55.615Z,100275.41
2023-04-16T00:06:18.324Z,100276.72
2023-04-16T00:07:41.982Z,100277.22
2023-04-16T00:09:04.969Z,100278.50
2023-04-16T00:10:27.410Z,100283.50
2023-04-16T00:11:50.408Z,100280.69
2023-04-16T00:13:13.967Z,100274.25
2023-04-16T00:14:36.131Z,100278.72
2023-04-16T00:15:59.055Z,100278.78
2023-04-16T00:17:21.098Z,100280.50
2023-04-16T00:18:43.800Z,100282.53
2023-04-16T00:20:09.473Z,100283.31
2023-04-16T00:21:32.214Z,100278.06
2023-04-16T00:22:53.854Z,100278.72
2023-04-16T00:24:16.567Z,100277.25
2023-04-16T00:25:39.725Z,100275.50
2023-04-16T00:27:03.865Z,100279.78
2023-04-16T00:28:26.096Z,100278.66
2023-04-16T00:29:49.063Z,100280.88
2023-04-16T00:31:11.242Z,100284.13
2023-04-16T00:32:34.992Z,100287.38
2023-04-16T00:33:57.098Z,100283.53
2023-04-16T00:35:20.319Z,100284.06
2023-04-16T00:36:43.151Z,100293.28
2023-04-16T00:38:06.768Z,100291.16
2023-04-16T00:39:28.306Z,100296.88
2023-04-16T00:40:51.387Z,100291.84
2023-04-16T00:42:15.641Z,100292.72
2023-04-16T00:43:38.991Z,100297.16
2023-04-16T00:45:01.633Z,100292.84
2023-04-16T00:46:24.941Z,100294.97
2023-04-16T00:47:47.941Z,100296.28
2023-04-16T00:49:20.916Z,100301.22
2023-04-16T00:50:43.936Z,100298.19
2023-04-16T00:52:07.063Z,100296.56
2023-04-16T00:53:29.293Z,100299.34
2023-04-16T00:54:52.108Z,100300.16
2023-04-16T00:56:17.692Z,100304.94
2023-04-16T00:57:42.012Z,100296.38
2023-04-16T00:59:07.517Z,100301.72
2023-04-16T01:00:30.793Z,100297.03
2023-04-16T01:01:54.511Z,100299.81
2023-04-16T01:03:17.856Z,100297.06
2023-04-16T01:04:40.474Z,100301.97
2023-04-16T01:06:03.820Z,100306.03
2023-04-16T01:07:26.597Z,100306.31
2023-04-16T01:08:49.738Z,100303.81
2023-04-16T01:10:11.585Z,100312.03
2023-04-16T01:11:34.781Z,100310.41
2023-04-16T01:12:58.820Z,100307.06
2023-04-16T01:14:22.000Z,100315.88
2023-04-16T01:15:44.589Z,100310.94
2023-04-16T01:17:07.077Z,100308.72
2023-04-16T01:18:29.402Z,100306.56
2023-04-16T01:19:51.854Z,100312.75
2023-04-16T01:21:15.245Z,100314.31
2023-04-16T01:22:38.615Z,100329.09
2023-04-16T01:24:03.615Z,100323.06
2023-04-16T01:25:25.957Z,100328.34
2023-04-16T01:26:49.494Z,100324.69
2023-04-16T01:28:12.466Z,100324.75
2023-04-16T01:29:35.878Z,100326.38
2023-04-16T01:30:57.730Z,100331.38
2023-04-16T01:32:21.109Z,100326.88
2023-04-16T01:33:42.912Z,100333.63
2023-04-16T01:35:06.170Z,100325.91
2023-04-16T01:36:32.021Z,100323.44
2023-04-16T01:37:53.940Z,100323.16
2023-04-16T01:39:19.368Z,100326.97
2023-04-16T01:40:41.208Z,100328.25
2023-04-16T01:42:04.004Z,100324.13
2023-04-16T01:43:26.094Z,100324.41
2023-04-16T01:44:49.217Z,100326.84
2023-04-16T01:46:21.322Z,100323.25
2023-04-16T01:47:44.810Z,100327.63
2023-04-16T01:49:07.742Z,100323.75
2023-04-16T01:50:29.970Z,100330.91
2023-04-16T01:51:53.750Z,100323.03
2023-04-16T01:53:15.952Z,100325.53
2023-04-16T01:54:38.927Z,100322.19
2023-04-16T01:56:01.092Z,100326.03
2023-04-16T01:57:24.074Z,100327.38
2023-04-16T01:58:47.163Z,100329.69
2023-04-16T02:00:11.758Z,100323.72
2023-04-16T02:01:34.573Z,100337.09
2023-04-16T02:02:56.584Z,100334.63
2023-04-16T02:04:19.447Z,100326.44
2023-04-16T02:05:42.158Z,100332.38
2023-04-16T02:07:07.383Z,100330.97
2023-04-16T02:08:30.389Z,100325.25
2023-04-16T02:09:52.742Z,100322.72
2023-04-16T02:11:15.878Z,100328.19
2023-04-16T02:12:38.119Z,100326.81
2023-04-16T02:14:00.904Z,100332.44
2023-04-16T02:15:23.920Z,100330.91
2023-04-16T02:16:47.546Z,100326.19
2023-04-16T02:18:09.231Z,100329.13
2023-04-16T02:19:32.058Z,100317.75
2023-04-16T02:20:54.354Z,100330.00
2023-04-16T02:22:18.833Z,100324.53
2023-04-16T02:23:42.161Z,100329.66
2023-04-16T02:25:05.001Z,100321.75
2023-04-16T02:26:29.118Z,100327.41
2023-04-16T02:27:51.189Z,100337.63
2023-04-16T02:29:14.854Z,100336.38
2023-04-16T02:30:37.171Z,100338.97
2023-04-16T02:32:00.560Z,100337.19
2023-04-16T02:33:26.160Z,100334.91
2023-04-16T02:34:48.781Z,100334.81
2023-04-16T02:36:11.245Z,100341.31
2023-04-16T02:37:36.687Z,100341.50
2023-04-16T02:38:59.718Z,100339.22
2023-04-16T02:40:22.283Z,100335.69
2023-04-16T02:41:45.269Z,100343.31
2023-04-16T02:43:09.244Z,100343.84
2023-04-16T02:44:31.804Z,100343.19
2023-04-16T02:45:53.596Z,100346.44
2023-04-16T02:47:17.419Z,100340.69
2023-04-16T02:48:41.061Z,100338.25
2023-04-16T02:50:03.786Z,100338.50
2023-04-16T02:51:27.740Z,100340.97
2023-04-16T02:52:52.342Z,100340.41
2023-04-16T02:54:15.710Z,100342.03
2023-04-16T02:55:38.828Z,100338.78
2023-04-16T02:57:02.336Z,100341.28
2023-04-16T02:58:29.402Z,100344.47
2023-04-16T02:59:51.949Z,100338.47
2023-04-16T03:01:15.142Z,100347.91
2023-04-16T03:02:38.048Z,100347.66
2023-04-16T03:04:00.048Z,100351.00
2023-04-16T03:05:23.018Z,100355.72
2023-04-16T03:06:46.284Z,100350.16
2023-04-16T03:08:14.399Z,100355.22
2023-04-16T03:09:35.520Z,100350.25
2023-04-16T03:10:55.701Z,100349.69
2023-04-16T03:12:13.868Z,100361.09
2023-04-16T03:13:34.236Z,100346.91
2023-04-16T03:14:55.498Z,100353.75
2023-04-16T03:16:15.901Z,100359.09
2023-04-16T03:17:37.004Z,100359.31
2023-04-16T03:18:57.193Z,100360.94
2023-04-16T03:20:19.149Z,100365.28
2023-04-16T03:21:39.269Z,100366.41
2023-04-16T03:23:00.668Z,100362.31
2023-04-16T03:24:23.238Z,100369.47
2023-04-16T03:25:46.714Z,100363.97
2023-04-16T03:27:07.072Z,100367.22
2023-04-16T03:28:31.322Z,100366.38
2023-04-16T03:29:51.218Z,100369.47
2023-04-16T03:31:12.415Z,100373.91
2023-04-16T03:32:33.765Z,100377.91
2023-04-16T03:33:54.153Z,100375.50
2023-04-16T03:35:15.855Z,100376.81
2023-04-16T03:36:36.697Z,100383.13
2023-04-16T03:37:57.543Z,100384.47
2023-04-16T03:39:18.551Z,100380.44
2023-04-16T03:40:41.383Z,100383.13
2023-04-16T03:42:03.467Z,100386.91
2023-04-16T03:43:23.733Z,100387.72
2023-04-16T03:44:44.952Z,100388.09
2023-04-16T03:46:06.394Z,100382.63
2023-04-16T03:47:27.651Z,100394.63
2023-04-16T03:48:48.852Z,100394.88
2023-04-16T03:50:09.847Z,100394.38
2023-04-16T03:51:30.912Z,100391.00
2023-04-16T03:52:51.354Z,100394.97
2023-04-16T03:54:12.708Z,100392.50
2023-04-16T03:55:33.115Z,100401.41
2023-04-16T03:56:57.051Z,100401.41
2023-04-16T03:58:17.023Z,100401.88
2023-04-16T03:59:38.487Z,100405.41
2023-04-16T04:00:58.857Z,100406.44
2023-04-16T04:02:17.704Z,100403.75
2023-04-16T04:03:38.157Z,100407.34
2023-04-16T04:04:59.780Z,100412.53
2023-04-16T04:06:19.936Z,100410.63
2023-04-16T04:07:41.242Z,100405.69
2023-04-16T04:09:02.758Z,100411.91
2023-04-16T04:10:23.126Z,100409.22
2023-04-16T04:11:44.351Z,100417.13
2023-04-16T04:13:06.438Z,100421.78
2023-04-16T04:14:27.489Z,100422.13
2023-04-16T04:15:47.506Z,100418.34
2023-04-16T04:17:09.825Z,100419.19
2023-04-16T04:18:31.088Z,100419.41
2023-04-16T04:20:00.908Z,100419.34
2023-04-16T04:21:22.212Z,100414.69
2023-04-16T04:22:41.278Z,100419.88
2023-04-16T04:24:02.344Z,100417.94
2023-04-16T04:25:22.741Z,100429.91
2023-04-16T04:26:43.864Z,100427.28
2023-04-16T04:28:06.838Z,100426.75
2023-04-16T04:29:26.708Z,100429.22
2023-04-16T04:30:47.866Z,100434.13
2023-04-16T04:32:07.982Z,100425.59
2023-04-16T04:33:29.671Z,100427.19
2023-04-16T04:34:49.743Z,100427.72
2023-04-16T04:36:10.946Z,100425.81
2023-04-16T04:37:30.993Z,100434.88
2023-04-16T04:38:52.370Z,100432.66
2023-04-16T04:40:13.411Z,100432.44
2023-04-16T04:41:33.888Z,100439.25
2023-04-16T04:42:55.415Z,100437.13
2023-04-16T04:44:17.093Z,100431.84
2023-04-16T04:45:38.423Z,100440.91
2023-04-16T04:46:58.704Z,100447.59
2023-04-16T04:48:21.589Z,100439.34
2023-04-16T04:49:42.786Z,100450.03
2023-04-16T04:51:05.299Z,100446.09
2023-04-16T04:52:25.819Z,100442.00
2023-04-16T04:53:46.839Z,100450.31
2023-04-16T04:55:07.002Z,100438.91
2023-04-16T04:56:27.030Z,100446.00
2023-04-16T04:57:48.001Z,100445.56
2023-04-16T04:59:08.041Z,100448.38
2023-04-16T05:00:31.059Z,100449.44
2023-04-16T05:01:52.223Z,100447.63
2023-04-16T05:03:12.586Z,100451.19
2023-04-16T05:04:34.176Z,100452.09
2023-04-16T05:05:55.548Z,100448.94
2023-04-16T05:07:16.479Z,100456.31
2023-04-16T05:08:37.799Z,100455.19
2023-04-16T05:09:58.042Z,100453.28
2023-04-16T05:11:19.076Z,100454.28
2023-04-16T05:12:40.111Z,100452.63
2023-04-16T05:14:01.222Z,100454.00
2023-04-16T05:15:21.551Z,100463.09
2023-04-16T05:16:43.929Z,100455.69
2023-04-16T05:18:05.161Z,100465.66
2023-04-16T05:19:25.545Z,100455.19
2023-04-16T05:20:46.780Z,100462.72
2023-04-16T05:22:04.695Z,100459.41
2023-04-16T05:23:26.050Z,100469.41
2023-04-16T05:24:46.926Z,100470.19
2023-04-16T05:26:08.285Z,100472.94
2023-04-16T05:27:28.176Z,100471.13
2023-04-16T05:28:49.219Z,100471.91
2023-04-16T05:30:11.258Z,100474.75
2023-04-16T05:31:31.650Z,100473.03
2023-04-16T05:32:54.217Z,100477.16
2023-04-16T05:34:15.503Z,100481.28
2023-04-16T05:35:36.422Z,100477.59
2023-04-16T05:36:56.350Z,100478.72
2023-04-16T05:38:17.433Z,100484.97
2023-04-16T05:39:39.006Z,100485.72
2023-04-16T05:40:59.337Z,100481.94
2023-04-16T05:42:20.530Z,100493.66
2023-04-16T05:43:40.804Z,100488.72
2023-04-16T05:45:04.244Z,100486.16
2023-04-16T05:46:24.676Z,100484.03
2023-04-16T05:47:46.213Z,100491.44
2023-04-16T05:49:09.127Z,100494.16
2023-04-16T05:50:29.447Z,100494.16
2023-04-16T05:51:51.015Z,100484.91
2023-04-16T05:53:13.963Z,100494.59
2023-04-16T05:54:34.938Z,100495.69
2023-04-16T05:55:55.418Z,100494.00
2023-04-16T05:57:16.572Z,100494.53
2023-04-16T05:58:37.994Z,100496.16
2023-04-16T05:59:59.207Z,100505.09
2023-04-16T06:01:20.293Z,100499.69
2023-04-16T06:02:41.883Z,100503.84
2023-04-16T06:04:02.376Z,100509.81
2023-04-16T06:05:26.635Z,100505.50
2023-04-16T06:06:47.666Z,100512.53
2023-04-16T06:08:08.900Z,100507.88
2023-04-16T06:09:30.850Z,100506.75
2023-04-16T06:10:52.079Z,100516.06
2023-04-16T06:12:13.334Z,100510.31
2023-04-16T06:13:34.619Z,100512.78
2023-04-16T06:14:54.796Z,100519.66
2023-04-16T06:16:15.787Z,100522.78
2023-04-16T06:17:37.015Z,100519.47
2023-04-16T06:18:57.351Z,100517.28
2023-04-16T06:20:18.828Z,100511.84
2023-04-16T06:21:40.698Z,100519.47
2023-04-16T06:23:01.836Z,100520.34
2023-04-16T06:24:23.299Z,100518.13
2023-04-16T06:25:43.483Z,100528.22
2023-04-16T06:27:02.867Z,100533.03
2023-04-16T06:28:23.873Z,100527.66
2023-04-16T06:29:44.401Z,100527.13
2023-04-16T06:31:05.933Z,100522.22
2023-04-16T06:32:27.017Z,100528.50
2023-04-16T06:33:48.289Z,100534.47
2023-04-16T06:35:09.999Z,100531.47
2023-04-16T06:36:29.045Z,100539.94
2023-04-16T06:37:51.196Z,100537.22
2023-04-16T06:39:11.365Z,100537.75
2023-04-16T06:40:32.799Z,100537.72
2023-04-16T06:41:54.300Z,100533.38
2023-04-16T06:43:15.696Z,100534.75
2023-04-16T06:44:36.309Z,100539.38
2023-04-16T06:45:57.209Z,100540.44
2023-04-16T06:47:17.008Z,100534.47
2023-04-16T06:48:38.190Z,100538.28
2023-04-16T06:49:58.666Z,100535.84
2023-04-16T06:51:20.610Z,100541.00
2023-04-16T06:52:40.768Z,100543.16
2023-04-16T06:54:03.220Z,100545.00
2023-04-16T06:55:23.461Z,100551.56
2023-04-16T06:56:44.793Z,100549.41
2023-04-16T06:58:04.991Z,100544.75
2023-04-16T06:59:26.130Z,100553.44
2023-04-16T07:00:47.370Z,100543.94
2023-04-16T07:02:07.925Z,100547.41
2023-04-16T07:03:27.605Z,100550.47
2023-04-16T07:04:48.656Z,100549.69
2023-04-16T07:06:10.424Z,100552.69
2023-04-16T07:07:32.110Z,100548.59
2023-04-16T07:08:53.221Z,100551.75
2023-04-16T07:10:15.461Z,100552.84
2023-04-16T07:11:36.777Z,100551.81
2023-04-16T07:12:57.353Z,100561.09
2023-04-16T07:14:18.679Z,100555.06
2023-04-16T07:15:39.775Z,100552.91
2023-04-16T07:17:00.633Z,100558.66
2023-04-16T07:18:22.030Z,100559.25
2023-04-16T07:19:42.890Z,100554.59
2023-04-16T07:21:04.217Z,100558.38
2023-04-16T07:22:24.325Z,100557.31
2023-04-16T07:23:45.505Z,100560.34
2023-04-16T07:25:06.621Z,100566.03
2023-04-16T07:26:27.995Z,100569.84
2023-04-16T07:27:49.315Z,100568.22
2023-04-16T07:29:10.497Z,100566.63
2023-04-16T07:30:34.264Z,100573.41
2023-04-16T07:31:55.516Z,100574.69
2023-04-16T07:33:16.516Z,100577.47
2023-04-16T07:34:37.435Z,100577.47
2023-04-16T07:35:58.573Z,100581.00
2023-04-16T07:37:19.938Z,100579.63
2023-04-16T07:38:41.269Z,100584.53
2023-04-16T07:40:02.608Z,100577.22
2023-04-16T07:41:23.492Z,100585.66
2023-04-16T07:42:45.849Z,100582.09
2023-04-16T07:44:06.004Z,100592.63
2023-04-16T07:45:27.365Z,100594.63
2023-04-16T07:46:48.820Z,100596.25
2023-04-16T07:48:09.808Z,100594.28
2023-04-16T07:49:30.705Z,100602.19
2023-04-16T07:50:52.111Z,100597.06
2023-04-16T07:52:13.696Z,100603.25
2023-04-16T07:53:34.754Z,100604.03
2023-04-16T07:54:55.654Z,100599.66
2023-04-16T07:56:17.063Z,100608.19
2023-04-16T07:57:38.387Z,100605.75
2023-04-16T07:59:14.492Z,100609.59
2023-04-16T08:00:41.471Z,100616.69
2023-04-16T08:02:02.655Z,100610.69
2023-04-16T08:03:24.584Z,100606.63
2023-04-16T08:04:46.140Z,100611.53
2023-04-16T08:06:06.690Z,100616.75
2023-04-16T08:07:27.796Z,100625.44
2023-04-16T08:08:49.142Z,100611.28
2023-04-16T08:10:09.204Z,100618.94
2023-04-16T08:11:30.185Z,100622.22
2023-04-16T08:12:51.574Z,100631.94
2023-04-16T08:14:13.954Z,100626.53
2023-04-16T08:15:34.217Z,100623.28
2023-04-16T08:16:55.857Z,100628.69
2023-04-16T08:18:16.909Z,100631.13
2023-04-16T08:19:38.292Z,100630.91
2023-04-16T08:20:59.484Z,100634.19
2023-04-16T08:22:20.526Z,100633.31
2023-04-16T08:23:41.896Z,100636.88
2023-04-16T08:25:04.124Z,100637.47
2023-04-16T08:26:25.418Z,100649.19
2023-04-16T08:27:46.220Z,100641.78
2023-04-16T08:29:06.099Z,100646.31
2023-04-16T08:30:29.367Z,100648.31
2023-04-16T08:31:50.703Z,100648.31
2023-04-16T08:33:11.597Z,100650.75
2023-04-16T08:34:13.577Z,100652.63
2023-04-16T08:35:16.103Z,100652.69
2023-04-16T08:36:17.562Z,100654.31
2023-04-16T08:37:19.977Z,100654.03
2023-04-16T08:38:22.460Z,100656.19
2023-04-16T08:39:24.205Z,100651.56
2023-04-16T08:40:28.323Z,100653.47
2023-04-16T08:41:31.128Z,100667.97
2023-04-16T08:42:45.831Z,100662.78
2023-04-16T08:43:50.472Z,100665.22
2023-04-16T08:45:05.059Z,100663.31
2023-04-16T08:46:08.882Z,100655.97
2023-04-16T08:47:13.696Z,100662.00
2023-04-16T08:48:15.618Z,100657.66
2023-04-16T08:49:19.036Z,100664.72
2023-04-16T08:50:23.642Z,100662.06
2023-04-16T08:51:28.408Z,100668.50
2023-04-16T08:52:31.321Z,100669.59
2023-04-16T08:53:38.009Z,100670.94
2023-04-16T08:54:46.393Z,100673.16
2023-04-16T08:56:04.618Z,100667.72
2023-04-16T08:57:07.614Z,100667.75
2023-04-16T08:58:15.454Z,100667.50
2023-04-16T08:59:17.607Z,100672.94
2023-04-16T09:00:20.821Z,100666.41
2023-04-16T09:01:25.544Z,100668.81
2023-04-16T09:02:28.494Z,100675.41
2023-04-16T09:03:34.811Z,100675.94
2023-04-16T09:04:40.773Z,100685.75
2023-04-16T09:05:44.819Z,100678.41
2023-04-16T09:06:48.424Z,100683.56
2023-04-16T09:07:51.617Z,100678.84
2023-04-16T09:08:53.903Z,100684.31
2023-04-16T09:09:58.874Z,100686.78
2023-04-16T09:11:01.319Z,100682.69
2023-04-16T09:12:03.358Z,100684.69
2023-04-16T09:13:05.810Z,100691.78
2023-04-16T09:14:09.810Z,100688.22
2023-04-16T09:15:14.126Z,100688.06
2023-04-16T09:16:15.806Z,100696.22
2023-04-16T09:17:20.351Z,100689.59
2023-04-16T09:18:23.230Z,100708.06
2023-04-16T09:19:24.717Z,100700.75
2023-04-16T09:20:27.136Z,100710.78
2023-04-16T09:21:30.941Z,100697.84
2023-04-16T09:22:33.439Z,100701.94
2023-04-16T09:23:36.401Z,100698.91
2023-04-16T09:24:38.458Z,100696.50
2023-04-16T09:25:40.911Z,100699.88
2023-04-16T09:26:43.383Z,100708.94
2023-04-16T09:27:46.745Z,100707.31
2023-04-16T09:28:50.745Z,100702.69
2023-04-16T09:29:53.368Z,100709.47
2023-04-16T09:31:08.191Z,100708.13
2023-04-16T09:32:12.036Z,100704.59
2023-04-16T09:33:22.122Z,100705.94
2023-04-16T09:34:24.685Z,100708.41
2023-04-16T09:35:26.406Z,100707.59
2023-04-16T09:36:29.390Z,100709.47
2023-04-16T09:37:31.461Z,100708.94
2023-04-16T09:38:47.838Z,100711.91
2023-04-16T09:39:54.278Z,100714.94
2023-04-16T09:41:07.247Z,100716.03
2023-04-16T09:42:09.902Z,100710.88
2023-04-16T09:43:12.324Z,100716.59
2023-04-16T09:44:14.866Z,100718.78
2023-04-16T09:45:17.359Z,100722.03
2023-04-16T09:46:18.902Z,100710.03
2023-04-16T09:47:21.947Z,100719.59
2023-04-16T09:48:31.801Z,100725.59
2023-04-16T09:49:35.997Z,100725.50
2023-04-16T09:50:38.803Z,100719.84
2023-04-16T09:51:41.887Z,100728.59
2023-04-16T09:52:45.847Z,100725.56
2023-04-16T09:53:47.365Z,100723.09
2023-04-16T09:54:51.340Z,100735.13
2023-04-16T09:55:52.856Z,100732.09
2023-04-16T09:56:58.069Z,100734.03
2023-04-16T09:58:00.370Z,100729.97
2023-04-16T09:59:03.056Z,100730.78
2023-04-16T10:00:07.767Z,100733.22
2023-04-16T10:01:12.560Z,100734.88
2023-04-16T10:02:15.852Z,100729.66
2023-04-16T10:03:19.005Z,100734.56
2023-04-16T10:04:22.964Z,100728.31
2023-04-16T10:05:26.308Z,100734.06
2023-04-16T10:06:30.197Z,100733.47
2023-04-16T10:07:34.684Z,100738.41
2023-04-16T10:08:37.177Z,100737.06
2023-04-16T10:09:39.260Z,100740.31
2023-04-16T10:10:42.538Z,100738.41
2023-04-16T10:11:44.101Z,100746.06
2023-04-16T10:12:46.535Z,100748.75
2023-04-16T10:13:48.088Z,100743.84
2023-04-16T10:14:50.781Z,100744.97
2023-04-16T10:15:52.590Z,100749.31
2023-04-16T10:16:57.097Z,100743.84
2023-04-16T10:18:00.282Z,100748.72
2023-04-16T10:19:03.083Z,100752.00
2023-04-16T10:20:07.781Z,100748.47
2023-04-16T10:21:11.889Z,100746.59
2023-04-16T10:22:13.759Z,100741.69
2023-04-16T10:23:16.425Z,100752.31
2023-04-16T10:24:18.446Z,100757.22
2023-04-16T10:25:21.569Z,100750.41
2023-04-16T10:26:24.317Z,100752.88
2023-04-16T10:27:28.068Z,100755.88
2023-04-16T10:28:30.568Z,100761.84
2023-04-16T10:29:34.535Z,100764.31
2023-04-16T10:30:36.778Z,100762.16
2023-04-16T10:31:40.483Z,100762.72
2023-04-16T10:32:42.547Z,100767.06
2023-04-16T10:33:46.281Z,100758.59
2023-04-16T10:34:48.004Z,100759.69
2023-04-16T10:36:04.972Z,100763.25
2023-04-16T10:37:10.015Z,100761.31
2023-04-16T10:38:26.199Z,100768.97
2023-04-16T10:39:32.890Z,100769.19
2023-04-16T10:40:35.461Z,100768.25
2023-04-16T10:41:38.860Z,100772.06
2023-04-16T10:42:40.393Z,100771.09
2023-04-16T10:43:45.292Z,100767.03
2023-04-16T10:44:47.760Z,100761.88
2023-04-16T10:45:49.353Z,100775.19
2023-04-16T10:46:51.838Z,100767.28
2023-04-16T10:47:56.091Z,100773.03
2023-04-16T10:49:02.222Z,100772.78
2023-04-16T10:50:17.010Z,100771.13
2023-04-16T10:51:31.452Z,100776.56
2023-04-16T10:52:33.160Z,100773.03
2023-04-16T10:53:38.106Z,100778.06
2023-04-16T10:54:41.282Z,100776.75
2023-04-16T10:55:56.695Z,100772.75
2023-04-16T10:57:02.230Z,100774.94
2023-04-16T10:58:26.977Z,100785.09
2023-04-16T10:59:32.171Z,100782.16
2023-04-16T11:00:49.268Z,100775.47
2023-04-16T11:01:53.905Z,100778.75
2023-04-16T11:02:55.682Z,100775.25
2023-04-16T11:04:00.136Z,100772.78
2023-04-16T11:05:03.072Z,100780.97
2023-04-16T11:06:12.303Z,100775.25
2023-04-16T11:07:21.054Z,100782.06
2023-04-16T11:08:24.237Z,100773.88
2023-04-16T11:09:48.197Z,100777.41
2023-04-16T11:10:50.650Z,100777.13
2023-04-16T11:11:52.442Z,100780.97
2023-04-16T11:12:56.109Z,100775.22
2023-04-16T11:13:57.626Z,100779.88
2023-04-16T11:15:01.750Z,100778.22
2023-04-16T11:16:03.787Z,100779.88
2023-04-16T11:17:06.266Z,100781.25
2023-04-16T11:18:09.739Z,100780.16
2023-04-16T11:19:17.498Z,100771.16
2023-04-16T11:20:21.887Z,100779.59
2023-04-16T11:21:24.034Z,100779.31
2023-04-16T11:22:28.357Z,100783.16
2023-04-16T11:23:29.906Z,100780.97
2023-04-16T11:24:32.937Z,100784.25
2023-04-16T11:25:34.870Z,100780.41
2023-04-16T11:26:37.356Z,100783.16
2023-04-16T11:27:38.954Z,100781.53
2023-04-16T11:28:41.449Z,100779.88
2023-04-16T11:29:57.067Z,100779.34
2023-04-16T11:30:59.828Z,100779.88
2023-04-16T11:32:01.474Z,100779.31
2023-04-16T11:33:07.014Z,100785.56
2023-04-16T11:34:08.610Z,100781.22
2023-04-16T11:35:15.198Z,100787.78
2023-04-16T11:36:16.749Z,100792.16
2023-04-16T11:37:21.839Z,100780.97
2023-04-16T11:38:35.412Z,100789.72
2023-04-16T11:39:49.126Z,100788.88
2023-04-16T11:40:51.486Z,100785.34
2023-04-16T11:41:53.960Z,100794.09
2023-04-16T11:42:55.692Z,100798.16
2023-04-16T11:43:58.330Z,100795.16
2023-04-16T11:45:01.473Z,100798.16
2023-04-16T11:46:12.933Z,100800.59
2023-04-16T11:47:19.169Z,100808.81
2023-04-16T11:48:21.966Z,100798.44
2023-04-16T11:49:31.470Z,100802.53
2023-04-16T11:50:33.944Z,100807.44
2023-04-16T11:51:40.092Z,100806.88
2023-04-16T11:52:52.804Z,100809.84
2023-04-16T11:53:58.652Z,100809.88
2023-04-16T11:55:00.388Z,100809.63
2023-04-16T11:56:05.025Z,100808.75
2023-04-16T11:57:07.566Z,100821.78
2023-04-16T11:58:12.399Z,100815.47
2023-04-16T11:59:18.715Z,100810.66
2023-04-16T12:00:23.958Z,100808.78
2023-04-16T12:01:27.856Z,100810.94
2023-04-16T12:02:38.005Z,100814.78
2023-04-16T12:03:45.043Z,100816.38
2023-04-16T12:04:47.794Z,100817.78
2023-04-16T12:05:49.521Z,100814.22
2023-04-16T12:07:21.929Z,100818.22
2023-04-16T12:08:30.677Z,100820.81
2023-04-16T12:09:36.479Z,100818.00
2023-04-16T12:10:54.887Z,100820.81
2023-04-16T12:11:56.539Z,100819.72
2023-04-16T12:13:12.395Z,100826.88
2023-04-16T12:14:14.225Z,100826.44
2023-04-16T12:15:16.690Z,100818.03
2023-04-16T12:16:20.638Z,100829.44
2023-04-16T12:17:23.277Z,100823.50
2023-04-16T12:18:26.837Z,100822.66
2023-04-16T12:19:29.526Z,100827.81
2023-04-16T12:20:39.482Z,100823.41
2023-04-16T12:21:47.484Z,100824.56
2023-04-16T12:22:50.723Z,100820.22
2023-04-16T12:23:53.725Z,100825.41
2023-04-16T12:25:03.673Z,100820.72
2023-04-16T12:26:10.804Z,100821.81
2023-04-16T12:27:13.565Z,100827.28
2023-04-16T12:28:16.505Z,100821.88
2023-04-16T12:29:20.497Z,100820.50
2023-04-16T12:30:27.167Z,100826.22
2023-04-16T12:31:37.212Z,100830.53
2023-04-16T12:32:39.982Z,100827.03
2023-04-16T12:33:42.886Z,100828.88
2023-04-16T12:34:52.311Z,100830.16
2023-04-16T12:35:56.903Z,100834.22
2023-04-16T12:37:09.463Z,100832.63
2023-04-16T12:38:11.910Z,100834.44
2023-04-16T12:39:16.126Z,100834.38
2023-04-16T12:40:18.977Z,100838.00
2023-04-16T12:41:21.917Z,100834.50
2023-04-16T12:42:23.518Z,100838.03
2023-04-16T12:43:26.516Z,100838.69
2023-04-16T12:44:29.451Z,100836.53
2023-04-16T12:45:31.201Z,100829.22
2023-04-16T12:46:33.846Z,100838.22
2023-04-16T12:47:36.435Z,100829.00
2023-04-16T12:48:37.972Z,100833.84
2023-04-16T12:49:40.753Z,100829.22
2023-04-16T12:50:44.487Z,100822.72
2023-04-16T12:51:47.887Z,100835.44
2023-04-16T12:52:49.560Z,100832.47
2023-04-16T12:53:52.036Z,100831.44
2023-04-16T12:54:53.642Z,100833.34
2023-04-16T12:56:03.623Z,100833.91
2023-04-16T12:57:05.197Z,100826.53
2023-04-16T12:58:08.947Z,100828.19
2023-04-16T12:59:12.035Z,100825.72
2023-04-16T13:00:16.211Z,100828.75
2023-04-16T13:01:18.838Z,100830.09
2023-04-16T13:02:21.423Z,100828.44
2023-04-16T13:03:23.184Z,100832.19
2023-04-16T13:04:26.162Z,100833.31
2023-04-16T13:05:27.994Z,100837.72
2023-04-16T13:06:31.425Z,100831.44
2023-04-16T13:07:36.180Z,100838.72
2023-04-16T13:08:38.820Z,100839.03
2023-04-16T13:09:41.427Z,100833.03
2023-04-16T13:10:42.986Z,100838.22
2023-04-16T13:11:50.056Z,100839.06
2023-04-16T13:12:51.590Z,100831.47
2023-04-16T13:13:54.061Z,100843.19
2023-04-16T13:14:56.041Z,100838.78
2023-04-16T13:15:58.690Z,100833.63
2023-04-16T13:17:00.414Z,100833.63
2023-04-16T13:18:03.534Z,100835.28
2023-04-16T13:19:06.086Z,100841.00
2023-04-16T13:20:09.014Z,100839.91
2023-04-16T13:21:12.371Z,100839.91
2023-04-16T13:22:14.101Z,100832.81
2023-04-16T13:23:16.557Z,100843.44
2023-04-16T13:24:19.205Z,100839.31
2023-04-16T13:25:20.766Z,100846.66
2023-04-16T13:26:32.367Z,100847.69
2023-04-16T13:27:35.457Z,100849.31
2023-04-16T13:28:37.922Z,100848.78
2023-04-16T13:29:39.413Z,100855.91
2023-04-16T13:30:42.007Z,100855.59
2023-04-16T13:31:46.517Z,100855.09
2023-04-16T13:32:49.192Z,100856.72
2023-04-16T13:33:51.973Z,100854.31
2023-04-16T13:34:54.600Z,100845.84
2023-04-16T13:35:56.164Z,100852.94
2023-04-16T13:36:58.681Z,100859.47
2023-04-16T13:38:00.367Z,100852.34
2023-04-16T13:39:04.666Z,100858.41
2023-04-16T13:40:07.915Z,100855.16
2023-04-16T13:41:10.655Z,100856.78
2023-04-16T13:42:12.320Z,100851.56
2023-04-16T13:43:19.074Z,100854.63
2023-04-16T13:44:21.798Z,100852.22
2023-04-16T13:45:23.459Z,100849.72
2023-04-16T13:46:27.077Z,100855.19
2023-04-16T13:47:35.060Z,100854.66
2023-04-16T13:48:38.426Z,100851.91
2023-04-16T13:49:47.856Z,100861.66
2023-04-16T13:50:50.676Z,100856.50
2023-04-16T13:51:53.426Z,100861.97
2023-04-16T13:52:55.311Z,100861.56
2023-04-16T13:53:57.748Z,100861.09
2023-04-16T13:55:00.265Z,100867.66
2023-04-16T13:56:03.840Z,100864.88
2023-04-16T13:57:09.618Z,100872.22
2023-04-16T13:58:22.486Z,100865.13
2023-04-16T13:59:24.242Z,100866.53
2023-04-16T14:00:27.256Z,100868.88
2023-04-16T14:01:40.578Z,100866.94
2023-04-16T14:02:42.872Z,100868.38
2023-04-16T14:03:45.822Z,100863.72
2023-04-16T14:04:47.570Z,100873.53
2023-04-16T14:05:50.042Z,100871.03